createdAt,value
2023-02-05T00:02:05.152Z,36.50
2023-02-05T00:07:09.849Z,42.00
2023-02-05T00:12:14.812Z,43.00
2023-02-05T00:17:19.940Z,45.00
2023-02-05T00:27:29.775Z,44.67
2023-02-05T00:32:36.161Z,40.50
2023-02-05T00:37:40.820Z,32.00
2023-02-05T00:42:45.713Z,36.75
2023-02-05T00:47:51.508Z,37.33
2023-02-05T00:52:56.272Z,27.50
2023-02-05T00:58:02.447Z,35.25
2023-02-05T01:03:08.597Z,29.25
2023-02-05T01:08:15.577Z,28.75
2023-02-05T01:13:21.035Z,33.50
2023-02-05T01:18:29.607Z,37.75
2023-02-05T01:23:34.642Z,34.33
2023-02-05T01:28:39.461Z,37.00
2023-02-05T01:33:44.231Z,38.00
2023-02-05T01:38:48.825Z,40.50
2023-02-05T01:44:15.432Z,33.00
2023-02-05T01:49:28.278Z,40.75
2023-02-05T01:54:37.471Z,35.00
2023-02-05T01:59:47.044Z,40.00
2023-02-05T02:05:03.517Z,44.25
2023-02-05T02:10:10.540Z,43.67
2023-02-05T02:15:20.851Z,45.33
2023-02-05T02:20:35.029Z,47.75
2023-02-05T02:25:45.744Z,46.00
2023-02-05T02:31:13.523Z,42.00
2023-02-05T02:36:38.517Z,31.75
2023-02-05T02:41:46.340Z,46.50
2023-02-05T02:46:59.611Z,43.00
2023-02-05T02:52:10.160Z,50.00
2023-02-05T02:57:19.370Z,50.50
2023-02-05T03:02:28.696Z,50.00
2023-02-05T03:07:50.766Z,49.75
2023-02-05T03:12:57.903Z,47.67
2023-02-05T03:18:03.853Z,49.67
2023-02-05T03:23:08.821Z,49.00
2023-02-05T03:28:15.550Z,48.50
2023-02-05T03:34:04.431Z,48.75
2023-02-05T03:39:49.189Z,44.50
2023-02-05T03:45:30.785Z,45.33
2023-02-05T03:50:43.466Z,46.33
2023-02-05T03:55:57.441Z,54.50
2023-02-05T04:01:02.842Z,48.25
2023-02-05T04:06:09.062Z,47.67
2023-02-05T04:11:15.374Z,47.67
2023-02-05T04:16:22.762Z,50.00
2023-02-05T04:21:28.321Z,50.00
2023-02-05T04:26:33.378Z,46.75
2023-02-05T04:31:42.318Z,49.00
2023-02-05T04:36:49.255Z,50.00
2023-02-05T04:41:54.572Z,1.50
2023-02-05T04:46:59.598Z,2.50
2023-02-05T04:52:04.684Z,0.00
2023-02-05T04:57:10.846Z,0.00
2023-02-05T05:02:16.381Z,0.00
2023-02-05T05:07:21.988Z,0.00
2023-02-05T05:12:27.634Z,0.00
2023-02-05T05:17:33.348Z,2.00
2023-02-05T05:22:38.936Z,0.00
2023-02-05T05:27:45.203Z,0.00
2023-02-05T05:32:50.928Z,0.00
2023-02-05T05:37:59.571Z,0.00
2023-02-05T05:43:24.923Z,1.00
2023-02-05T05:48:30.816Z,0.00
2023-02-05T05:53:36.548Z,0.00
2023-02-05T05:58:42.462Z,12.00
2023-02-05T06:03:48.071Z,2.00
2023-02-05T06:08:53.743Z,6.00
2023-02-05T06:13:59.366Z,12.33
2023-02-05T06:19:04.639Z,0.00
2023-02-05T06:24:09.838Z,0.00
2023-02-05T06:29:15.423Z,11.50
2023-02-05T06:34:20.852Z,7.33
2023-02-05T06:39:26.324Z,2.00
2023-02-05T06:44:32.165Z,0.00
2023-02-05T06:49:38.923Z,0.50
2023-02-05T06:54:46.153Z,0.00
2023-02-05T07:04:56.529Z,0.00
2023-02-05T07:10:02.859Z,49.00
2023-02-05T07:15:10.909Z,1.00
2023-02-05T07:20:18.272Z,20.00
2023-02-05T07:25:24.339Z,1.33
2023-02-05T07:30:30.043Z,2.00
2023-02-05T07:35:38.816Z,6.00
2023-02-05T07:40:45.153Z,14.25
2023-02-05T07:45:57.740Z,11.00
2023-02-05T07:51:03.871Z,3.50
2023-02-05T07:56:09.657Z,0.00
2023-02-05T08:01:15.146Z,0.50
2023-02-05T08:11:26.121Z,0.00
2023-02-05T08:16:31.539Z,0.67
2023-02-05T08:21:36.971Z,3.50
2023-02-05T08:26:42.635Z,0.00
2023-02-05T08:31:47.983Z,1.00
2023-02-05T08:36:53.659Z,0.00
2023-02-05T08:41:58.902Z,9.00
2023-02-05T08:47:04.408Z,5.00
2023-02-05T08:52:10.086Z,0.00
2023-02-05T08:57:18.127Z,0.00
2023-02-05T09:02:26.128Z,0.00
2023-02-05T09:07:33.720Z,0.00
2023-02-05T09:12:39.006Z,2.00
2023-02-05T09:17:44.549Z,0.00
2023-02-05T09:22:50.042Z,0.00
2023-02-05T09:27:55.496Z,37.25
2023-02-05T09:33:00.751Z,3.33
2023-02-05T09:38:07.110Z,0.00
2023-02-05T09:43:36.295Z,0.50
2023-02-05T09:49:22.440Z,81.33
2023-02-05T09:54:35.941Z,0.00
2023-02-05T09:59:47.196Z,0.00
2023-02-05T10:04:56.575Z,0.50
2023-02-05T10:10:17.483Z,2.00
2023-02-05T10:15:47.805Z,4.67
2023-02-05T10:21:29.959Z,1.50
2023-02-05T10:26:53.024Z,45.50
2023-02-05T10:32:21.787Z,0.00
2023-02-05T10:37:57.764Z,1.50
2023-02-05T10:48:34.388Z,2.00
2023-02-05T10:53:40.662Z,2.00
2023-02-05T10:58:58.811Z,0.00
2023-02-05T11:04:09.924Z,1.33
2023-02-05T11:09:26.725Z,0.00
2023-02-05T11:14:36.292Z,14.00
2023-02-05T11:19:41.665Z,0.00
2023-02-05T11:24:46.460Z,0.00
2023-02-05T11:40:28.138Z,3.00
2023-02-05T11:45:35.641Z,2.00
2023-02-05T11:50:47.629Z,0.00
2023-02-05T11:56:02.410Z,13.67
2023-02-05T12:07:09.411Z,62.25
2023-02-05T12:12:48.036Z,53.75
2023-02-05T12:17:59.856Z,54.33
2023-02-05T12:23:07.628Z,57.25
2023-02-05T12:28:38.032Z,50.00
2023-02-05T12:34:18.393Z,63.50
2023-02-05T12:39:45.772Z,49.33
2023-02-05T12:45:27.186Z,59.50
2023-02-05T12:51:06.249Z,58.00
2023-02-05T12:56:32.530Z,63.67
2023-02-05T13:01:50.421Z,48.50
2023-02-05T13:07:13.217Z,50.00
2023-02-05T13:12:25.050Z,54.75
2023-02-05T13:17:41.653Z,58.00
2023-02-05T13:23:15.367Z,58.25
2023-02-05T13:28:45.232Z,55.00
2023-02-05T13:33:52.696Z,64.00
2023-02-05T13:39:17.589Z,0.00
2023-02-05T13:44:48.879Z,0.00
2023-02-05T13:50:27.965Z,0.00
2023-02-05T13:56:19.036Z,48.00
2023-02-05T14:01:27.833Z,84.75
2023-02-05T14:06:39.652Z,64.75
2023-02-05T14:12:03.549Z,57.00
2023-02-05T14:17:34.089Z,62.25
2023-02-05T14:22:45.125Z,65.50
2023-02-05T14:27:53.578Z,68.00
2023-02-05T14:33:05.021Z,63.50
2023-02-05T14:38:34.564Z,68.75
2023-02-05T14:43:42.383Z,77.00
2023-02-05T14:48:50.671Z,78.25
2023-02-05T14:54:12.867Z,72.33
2023-02-05T14:59:30.850Z,64.00
2023-02-05T15:04:51.973Z,58.00
2023-02-05T15:15:33.982Z,62.50
2023-02-05T15:20:42.982Z,63.25
2023-02-05T15:25:59.962Z,61.75
2023-02-05T15:31:13.964Z,68.00
2023-02-05T15:36:31.261Z,64.00
2023-02-05T15:41:37.673Z,68.25
2023-02-05T15:46:43.086Z,64.25
2023-02-05T15:51:49.639Z,55.00
2023-02-05T15:56:56.054Z,62.00
2023-02-05T16:02:36.494Z,56.50
2023-02-05T16:07:46.319Z,67.00
2023-02-05T16:13:19.608Z,61.75
2023-02-05T16:18:29.061Z,64.50
2023-02-05T16:28:55.972Z,55.67
2023-02-05T16:34:15.114Z,61.75
2023-02-05T16:44:43.084Z,57.25
2023-02-05T16:49:50.328Z,47.75
2023-02-05T16:54:55.493Z,56.25
2023-02-05T17:00:20.328Z,52.00
2023-02-05T17:05:32.966Z,60.25
2023-02-05T17:10:55.587Z,88.50
2023-02-05T17:16:22.028Z,54.25
2023-02-05T17:21:38.381Z,61.50
2023-02-05T17:26:44.613Z,60.50
2023-02-05T17:31:49.429Z,56.67
2023-02-05T17:36:54.142Z,58.00
2023-02-05T17:42:11.338Z,56.00
2023-02-05T17:47:16.478Z,60.25
2023-02-05T17:52:21.431Z,49.25
2023-02-05T17:57:26.224Z,69.75
2023-02-05T18:02:30.921Z,66.33
2023-02-05T18:07:44.341Z,60.50
2023-02-05T18:12:49.259Z,52.67
2023-02-05T18:17:54.461Z,54.50
2023-02-05T18:22:59.083Z,63.33
2023-02-05T18:28:03.909Z,59.50
2023-02-05T18:33:08.632Z,62.67
2023-02-05T18:38:13.253Z,54.50
2023-02-05T18:43:18.190Z,60.50
2023-02-05T18:48:24.204Z,55.33
2023-02-05T18:53:30.372Z,50.00
2023-02-05T18:58:36.034Z,50.00
2023-02-05T19:03:44.602Z,51.00
2023-02-05T19:08:50.195Z,58.33
2023-02-05T19:14:04.206Z,46.50
2023-02-05T19:19:09.819Z,56.50
2023-02-05T19:29:22.074Z,55.00
2023-02-05T19:34:29.100Z,53.00
2023-02-05T19:39:33.900Z,53.00
2023-02-05T19:44:38.662Z,50.50
2023-02-05T19:49:43.324Z,73.00
2023-02-05T19:54:48.201Z,61.75
2023-02-05T19:59:52.981Z,56.25
2023-02-05T20:04:57.760Z,61.00
2023-02-05T20:10:02.498Z,46.75
2023-02-05T20:15:07.810Z,63.33
2023-02-05T20:20:24.979Z,52.75
2023-02-05T20:25:37.526Z,63.00
2023-02-05T20:31:01.796Z,50.33
2023-02-05T20:36:14.604Z,56.67
2023-02-05T20:41:20.636Z,49.25
2023-02-05T20:46:26.700Z,53.00
2023-02-05T20:51:32.564Z,47.00
2023-02-05T20:56:38.296Z,49.25
2023-02-05T21:01:43.593Z,51.75
2023-02-05T21:06:49.589Z,52.00
2023-02-05T21:11:56.672Z,48.00
2023-02-05T21:17:02.053Z,53.33
2023-02-05T21:22:06.940Z,50.00
2023-02-05T21:27:12.292Z,58.50
2023-02-05T21:32:18.640Z,61.50
2023-02-05T21:37:23.904Z,52.00
2023-02-05T21:42:28.765Z,61.50
2023-02-05T21:47:33.990Z,60.75
2023-02-05T21:52:39.047Z,58.75
2023-02-05T21:57:44.938Z,56.00
2023-02-05T22:02:50.055Z,58.50
2023-02-05T22:07:55.188Z,53.75
2023-02-05T22:13:00.600Z,56.75
2023-02-05T22:18:06.025Z,47.00
2023-02-05T22:23:11.101Z,49.33
2023-02-05T22:28:17.347Z,58.00
2023-02-05T22:33:22.622Z,50.00
2023-02-05T22:38:28.961Z,58.67
2023-02-05T22:43:35.109Z,47.25
2023-02-05T22:48:42.441Z,56.75
2023-02-05T22:53:50.159Z,63.25
2023-02-05T22:58:56.010Z,56.00
2023-02-05T23:04:03.115Z,63.33
2023-02-05T23:09:10.089Z,59.75
2023-02-05T23:14:17.104Z,65.50
2023-02-05T23:19:23.774Z,61.25
2023-02-05T23:24:30.706Z,51.50
2023-02-05T23:29:35.930Z,56.00
2023-02-05T23:34:41.123Z,54.50
2023-02-05T23:39:46.317Z,52.00
2023-02-05T23:44:51.560Z,50.25
2023-02-05T23:49:56.642Z,57.50
2023-02-05T23:55:01.934Z,62.75
